Time;durP1;ratioP1;P1;durP2;ratioP2;P2;SDS_P1;SDS_P2;PMS_P1;PMS_P2;Temp;Humidity;BMP_temperature;BMP_pressure;BME280_temperature;BME280_humidity;BME280_pressure;Samples;Min_cycle;Max_cycle;Signal;HPM_P1;HPM_P2
2022/01/12 00:02:01;;;;;;;8.18;5.78;;;5.10;99.90;;;;;;4950795;29;20277;-73
2022/01/12 00:04:47;;;;;;;7.75;5.80;;;5.10;99.90;;;;;;4949533;28;20204;-72
2022/01/12 00:07:33;;;;;;;6.72;5.50;;;5.20;99.90;;;;;;4944924;29;20232;-72
2022/01/12 00:10:19;;;;;;;6.60;5.05;;;5.10;99.90;;;;;;4950472;29;20348;-74
2022/01/12 00:13:05;;;;;;;7.57;5.35;;;5.10;99.90;;;;;;4950862;29;20320;-75
2022/01/12 00:15:52;;;;;;;7.00;4.97;;;5.00;99.90;;;;;;4947791;28;20219;-74
2022/01/12 00:18:38;;;;;;;7.93;5.45;;;5.00;99.90;;;;;;4949080;28;20243;-74
2022/01/12 00:21:23;;;;;;;7.20;5.70;;;4.90;99.90;;;;;;4948111;29;20204;-74
2022/01/12 00:24:09;;;;;;;7.78;5.90;;;4.90;99.90;;;;;;4950974;29;20765;-74
2022/01/12 00:33:10;;;;;;;7.70;5.40;;;4.90;99.90;;;;;;4952223;29;20180;-74
2022/01/12 00:35:58;;;;;;;8.35;6.32;;;4.90;99.90;;;;;;4946559;29;20245;-74
2022/01/12 00:38:45;;;;;;;6.70;5.47;;;4.90;99.90;;;;;;4951682;29;20296;-74
2022/01/12 00:41:30;;;;;;;7.93;5.63;;;4.90;99.90;;;;;;4952970;28;20204;-74
2022/01/12 00:44:22;;;;;;;8.77;5.65;;;5.00;99.90;;;;;;4950414;29;20264;-74
2022/01/12 00:47:08;;;;;;;9.85;7.50;;;4.90;99.90;;;;;;4951587;29;20224;-74
2022/01/12 00:49:55;;;;;;;7.95;6.28;;;4.90;99.90;;;;;;4953176;29;20208;-74
2022/01/12 00:52:41;;;;;;;7.75;6.63;;;4.90;99.90;;;;;;4952692;28;20203;-74
2022/01/12 00:55:27;;;;;;;7.55;5.80;;;4.90;99.90;;;;;;4947452;29;20220;-74
2022/01/12 00:58:12;;;;;;;10.07;6.38;;;4.80;99.90;;;;;;4954444;28;20232;-74
2022/01/12 01:00:58;;;;;;;7.80;5.70;;;4.80;99.90;;;;;;4952361;29;20203;-74
2022/01/12 01:03:44;;;;;;;9.48;5.00;;;4.70;99.90;;;;;;4950936;29;20666;-74
2022/01/12 01:06:32;;;;;;;7.03;5.20;;;4.60;99.90;;;;;;4949927;28;20211;-74
2022/01/12 01:09:18;;;;;;;7.50;6.30;;;4.70;99.90;;;;;;4948257;29;20299;-74
2022/01/12 01:12:04;;;;;;;7.25;5.18;;;4.60;99.90;;;;;;4952407;29;20203;-74
2022/01/12 01:15:02;;;;;;;9.68;6.32;;;4.60;99.90;;;;;;4942227;29;20200;-74
2022/01/12 01:27:00;;;;;;;6.82;5.57;;;3.90;99.90;;;;;;4950872;29;20220;-74
2022/01/12 01:29:47;;;;;;;7.10;5.22;;;3.80;99.90;;;;;;4952202;28;20239;-74
2022/01/12 01:32:35;;;;;;;5.18;4.38;;;3.80;99.90;;;;;;4951199;29;20312;-74
2022/01/12 01:35:24;;;;;;;9.27;4.78;;;3.70;99.90;;;;;;4946129;29;20706;-74
2022/01/12 01:38:10;;;;;;;10.30;5.88;;;3.90;99.90;;;;;;4951300;28;20769;-74
2022/01/12 01:40:57;;;;;;;6.10;4.47;;;3.90;99.90;;;;;;4949386;29;20216;-74
2022/01/12 01:44:05;;;;;;;6.28;4.60;;;3.90;99.90;;;;;;4943888;29;20300;-74
2022/01/12 01:56:01;;;;;;;6.35;5.28;;;3.40;99.90;;;;;;4951058;29;20227;-74
2022/01/12 01:58:47;;;;;;;9.57;4.60;;;3.30;99.90;;;;;;4946903;29;20235;-74
2022/01/12 02:01:33;;;;;;;5.63;4.63;;;3.10;99.90;;;;;;4945927;29;20204;-74
2022/01/12 02:04:19;;;;;;;5.43;4.25;;;3.10;99.90;;;;;;4949517;29;20701;-74
2022/01/12 02:07:05;;;;;;;4.70;4.20;;;2.90;99.90;;;;;;4949302;29;20236;-74
2022/01/12 02:09:51;;;;;;;5.65;4.10;;;2.70;99.90;;;;;;4949684;29;20243;-74
2022/01/12 02:12:38;;;;;;;5.80;4.43;;;2.80;99.90;;;;;;4942583;28;20204;-74
2022/01/12 02:15:25;;;;;;;5.80;4.05;;;2.70;99.90;;;;;;4951635;29;20208;-74
2022/01/12 02:18:17;;;;;;;5.82;4.68;;;2.60;99.90;;;;;;4951810;29;20275;-74
2022/01/12 02:36:27;;;;;;;6.35;5.40;;;2.20;99.90;;;;;;4956374;29;20235;-73
2022/01/12 02:42:18;;;;;;;6.82;5.00;;;2.30;99.90;;;;;;4952436;29;20227;-74
2022/01/12 02:51:16;;;;;;;7.80;5.88;;;2.00;99.90;;;;;;4952298;29;20192;-74
2022/01/12 02:54:03;;;;;;;6.78;5.03;;;1.90;99.90;;;;;;4952763;29;20200;-74
2022/01/12 02:56:48;;;;;;;7.55;5.53;;;1.90;99.90;;;;;;4951641;29;20333;-72
2022/01/12 02:59:34;;;;;;;6.35;4.50;;;1.90;99.90;;;;;;4955774;28;20361;-74
2022/01/12 03:02:26;;;;;;;6.20;4.82;;;2.00;99.90;;;;;;4946520;29;20685;-74
2022/01/12 03:08:20;;;;;;;6.32;4.25;;;2.30;99.90;;;;;;4954090;29;20232;-74
2022/01/12 03:11:08;;;;;;;6.68;5.05;;;2.20;99.90;;;;;;4953450;28;20211;-74
2022/01/12 03:13:54;;;;;;;8.75;5.47;;;2.00;99.90;;;;;;4953301;29;20212;-74
2022/01/12 03:16:41;;;;;;;7.25;5.05;;;2.00;99.90;;;;;;4955122;28;20710;-74
2022/01/12 03:19:27;;;;;;;7.43;5.15;;;2.10;99.90;;;;;;4953089;29;20328;-74
2022/01/12 03:22:13;;;;;;;7.50;5.13;;;2.10;99.90;;;;;;4950814;29;20341;-74
2022/01/12 03:24:59;;;;;;;6.47;4.88;;;2.20;99.90;;;;;;4954772;29;20212;-74
2022/01/12 03:27:46;;;;;;;7.32;5.57;;;2.20;99.90;;;;;;4953349;29;20249;-74
2022/01/12 03:30:37;;;;;;;6.30;5.18;;;2.10;99.90;;;;;;4949030;29;20264;-74
2022/01/12 03:33:49;;;;;;;6.45;4.50;;;2.10;99.90;;;;;;4952154;29;20599;-74
2022/01/12 03:36:53;;;;;;;8.25;5.47;;;1.90;99.90;;;;;;4950937;29;20204;-74
2022/01/12 03:39:38;;;;;;;8.32;5.50;;;1.70;99.90;;;;;;4948064;29;20244;-74
2022/01/12 03:42:24;;;;;;;5.20;4.22;;;1.70;99.90;;;;;;4948430;29;20207;-74
2022/01/12 03:45:12;;;;;;;6.20;5.13;;;1.80;99.90;;;;;;4954950;28;20208;-73
2022/01/12 03:47:57;;;;;;;6.88;5.30;;;1.70;99.90;;;;;;4952533;28;20276;-73
2022/01/12 03:50:43;;;;;;;8.57;5.30;;;1.60;99.90;;;;;;4952455;29;20204;-74
2022/01/12 03:53:28;;;;;;;7.18;5.57;;;1.60;99.90;;;;;;4954473;29;20234;-74
2022/01/12 03:56:14;;;;;;;7.28;5.13;;;1.60;99.90;;;;;;4955002;29;20566;-74
2022/01/12 03:59:00;;;;;;;8.27;5.60;;;1.70;99.90;;;;;;4953867;28;20524;-74
2022/01/12 04:01:47;;;;;;;8.95;5.70;;;1.90;99.90;;;;;;4949079;29;20204;-74
2022/01/12 04:04:37;;;;;;;5.97;4.75;;;1.90;99.90;;;;;;4953695;29;20239;-74
2022/01/12 04:10:40;;;;;;;7.18;5.07;;;2.20;99.90;;;;;;4891028;29;20744;-74
2022/01/12 04:13:27;;;;;;;9.30;5.75;;;2.20;99.90;;;;;;4893501;29;20332;-73
2022/01/12 04:16:13;;;;;;;9.00;6.40;;;2.10;99.90;;;;;;4944107;29;20212;-74
2022/01/12 04:19:00;;;;;;;7.30;5.25;;;1.90;99.90;;;;;;4950369;29;20223;-74
2022/01/12 04:21:46;;;;;;;8.65;6.00;;;1.80;99.90;;;;;;4950714;29;20216;-74
2022/01/12 04:24:33;;;;;;;6.72;5.18;;;1.90;99.90;;;;;;4947399;29;20207;-74
2022/01/12 04:27:19;;;;;;;7.70;5.43;;;2.00;99.90;;;;;;4946508;29;20328;-74
2022/01/12 04:30:06;;;;;;;7.18;5.55;;;2.10;99.90;;;;;;4950672;29;20223;-74
2022/01/12 04:32:51;;;;;;;6.63;5.65;;;2.20;99.90;;;;;;4953057;29;20220;-74
2022/01/12 04:35:46;;;;;;;6.50;5.80;;;2.20;99.90;;;;;;4952939;29;20207;-74
2022/01/12 04:38:33;;;;;;;11.48;5.72;;;2.30;99.90;;;;;;4952703;28;20721;-74
2022/01/12 04:41:19;;;;;;;8.70;6.13;;;2.30;99.90;;;;;;4949774;29;20279;-74
2022/01/12 04:44:07;;;;;;;7.57;5.25;;;2.40;99.90;;;;;;4949148;29;20294;-74
2022/01/12 04:47:05;;;;;;;7.47;5.35;;;2.40;99.90;;;;;;4951882;29;20667;-74
2022/01/12 04:49:52;;;;;;;7.05;5.60;;;2.50;99.90;;;;;;4952653;28;20228;-74
2022/01/12 04:52:39;;;;;;;7.50;5.40;;;2.50;99.90;;;;;;4939349;29;20203;-73
2022/01/12 04:55:24;;;;;;;8.70;6.30;;;2.40;99.90;;;;;;4952125;29;20204;-74
2022/01/12 04:58:11;;;;;;;9.68;6.00;;;2.30;99.90;;;;;;4951634;28;20790;-74
2022/01/12 05:01:04;;;;;;;6.10;5.00;;;2.10;99.90;;;;;;4947063;29;20200;-73
2022/01/12 05:07:11;;;;;;;7.20;5.40;;;1.60;99.90;;;;;;4950900;28;20204;-74
2022/01/12 05:13:01;;;;;;;6.90;5.70;;;1.50;99.90;;;;;;4952180;29;20207;-72
2022/01/12 05:15:47;;;;;;;7.40;6.13;;;1.30;99.90;;;;;;4952465;29;20203;-74
2022/01/12 05:18:34;;;;;;;8.93;6.20;;;1.30;99.90;;;;;;4949173;28;20224;-74
2022/01/12 05:21:21;;;;;;;7.93;6.05;;;1.30;99.90;;;;;;4950502;28;20216;-74
2022/01/12 05:24:10;;;;;;;7.75;6.18;;;1.20;99.90;;;;;;4952253;29;20562;-74
2022/01/12 05:26:57;;;;;;;12.40;6.35;;;1.30;99.90;;;;;;4952911;29;20338;-73
2022/01/12 05:29:42;;;;;;;9.00;5.65;;;1.40;99.90;;;;;;4945692;28;20228;-74
2022/01/12 05:32:28;;;;;;;7.05;5.88;;;1.30;99.90;;;;;;4947687;29;20253;-74
2022/01/12 05:35:16;;;;;;;6.80;5.80;;;1.40;99.90;;;;;;4950800;29;20315;-74
2022/01/12 05:38:04;;;;;;;7.05;5.30;;;1.30;99.90;;;;;;4951406;28;20375;-74
2022/01/12 05:40:53;;;;;;;6.95;5.30;;;1.40;99.90;;;;;;4946910;29;20309;-74
2022/01/12 05:43:41;;;;;;;8.35;5.65;;;1.50;99.90;;;;;;4948004;29;20208;-74
2022/01/12 05:46:27;;;;;;;11.60;10.00;;;1.40;99.90;;;;;;4947732;29;20291;-74
2022/01/12 05:52:19;;;;;;;9.57;6.10;;;1.40;99.90;;;;;;4949211;29;20756;-74
2022/01/12 05:55:06;;;;;;;7.75;5.75;;;1.50;99.90;;;;;;4949591;29;20216;-74
2022/01/12 05:57:52;;;;;;;10.40;6.90;;;1.40;99.90;;;;;;4948503;28;20231;-74
2022/01/12 06:00:39;;;;;;;9.88;4.82;;;1.40;99.90;;;;;;4964406;23;20253;-71
2022/01/12 06:03:25;;;;;;;7.68;5.93;;;1.20;99.90;;;;;;4944398;28;20199;-70
2022/01/12 06:06:11;;;;;;;10.55;6.18;;;0.90;99.90;;;;;;4950691;28;20200;-71
2022/01/12 06:08:56;;;;;;;7.97;5.85;;;0.80;99.90;;;;;;4946689;29;20641;-71
2022/01/12 06:11:42;;;;;;;7.13;5.97;;;0.80;99.90;;;;;;4935205;29;20228;-70
2022/01/12 06:14:28;;;;;;;9.88;7.15;;;0.80;99.90;;;;;;4931628;29;20373;-70
2022/01/12 06:17:14;;;;;;;7.93;6.15;;;0.70;99.90;;;;;;4932263;29;20201;-71
2022/01/12 06:20:01;;;;;;;11.73;7.07;;;0.70;99.90;;;;;;4930787;29;20217;-70
2022/01/12 06:22:47;;;;;;;9.80;6.65;;;0.70;99.90;;;;;;4923902;29;20205;-71
2022/01/12 06:25:32;;;;;;;7.05;5.75;;;0.90;99.90;;;;;;4928929;29;20285;-70
2022/01/12 06:28:34;;;;;;;5.85;4.78;;;0.90;99.90;;;;;;4931554;29;20221;-70
2022/01/12 06:31:26;;;;;;;8.27;6.28;;;1.00;99.90;;;;;;4929138;29;20253;-70
2022/01/12 06:34:13;;;;;;;9.95;7.28;;;1.20;99.90;;;;;;4931237;29;20336;-71
2022/01/12 06:36:59;;;;;;;8.27;7.20;;;1.30;99.90;;;;;;4931217;29;20682;-71
2022/01/12 06:39:44;;;;;;;8.50;6.20;;;1.30;99.90;;;;;;4920962;29;20730;-71
2022/01/12 06:42:30;;;;;;;8.73;6.18;;;1.20;99.90;;;;;;4935992;29;20423;-71
2022/01/12 06:45:16;;;;;;;9.48;7.32;;;1.20;99.90;;;;;;4928949;29;20277;-70
2022/01/12 06:48:01;;;;;;;8.20;6.80;;;1.20;99.90;;;;;;4930707;29;20261;-70
2022/01/12 06:50:48;;;;;;;7.90;6.40;;;1.20;99.90;;;;;;4932832;29;20228;-70
2022/01/12 06:53:34;;;;;;;9.32;6.68;;;1.30;99.90;;;;;;4929105;29;20732;-71
2022/01/12 06:56:20;;;;;;;8.65;6.35;;;1.40;99.90;;;;;;4929024;29;20256;-71
2022/01/12 06:59:06;;;;;;;9.20;6.40;;;1.30;99.90;;;;;;4930098;29;20726;-71
2022/01/12 07:01:52;;;;;;;12.38;6.85;;;1.30;99.90;;;;;;4933590;29;20248;-71
2022/01/12 07:04:38;;;;;;;9.20;6.80;;;1.30;99.90;;;;;;4929357;29;20261;-71
2022/01/12 07:07:25;;;;;;;10.00;6.85;;;1.20;99.90;;;;;;4929920;29;20205;-71
2022/01/12 07:10:11;;;;;;;9.65;6.30;;;1.00;99.90;;;;;;4934564;29;20232;-71
2022/01/12 07:12:56;;;;;;;11.38;7.95;;;0.90;99.90;;;;;;4931858;29;21175;-70
2022/01/12 07:15:42;;;;;;;10.15;7.85;;;0.90;99.90;;;;;;4929084;29;20255;-71
2022/01/12 07:18:29;;;;;;;9.43;7.25;;;0.90;99.90;;;;;;4926098;29;20269;-70
2022/01/12 07:21:15;;;;;;;11.48;8.27;;;0.90;99.90;;;;;;4937207;29;20317;-71
2022/01/12 07:24:03;;;;;;;12.40;8.45;;;1.00;99.90;;;;;;4934549;29;20221;-71
2022/01/12 07:26:48;;;;;;;12.20;9.27;;;1.20;99.90;;;;;;4926632;29;20254;-71
2022/01/12 07:29:34;;;;;;;10.07;6.72;;;1.30;99.90;;;;;;4934699;29;20251;-70
2022/01/12 07:32:20;;;;;;;9.88;7.18;;;1.40;99.90;;;;;;4928301;29;20204;-70
2022/01/12 07:35:06;;;;;;;11.75;7.80;;;1.40;99.90;;;;;;4934503;29;20695;-71
2022/01/12 07:37:52;;;;;;;11.30;8.30;;;1.20;99.90;;;;;;4924591;29;20270;-71
2022/01/12 07:40:39;;;;;;;26.23;17.90;;;1.30;99.90;;;;;;4933066;29;20355;-71
2022/01/12 07:43:25;;;;;;;14.18;9.00;;;1.30;99.90;;;;;;4927412;29;20326;-70
2022/01/12 07:46:10;;;;;;;22.85;15.65;;;1.20;99.90;;;;;;4932950;29;20228;-70
2022/01/12 07:48:56;;;;;;;17.67;11.90;;;1.10;99.90;;;;;;4922656;29;20569;-70
2022/01/12 07:51:42;;;;;;;15.77;11.10;;;1.20;99.90;;;;;;4935652;29;20212;-70
2022/01/12 07:54:27;;;;;;;20.10;11.75;;;1.20;99.90;;;;;;4925647;29;20200;-70
2022/01/12 07:57:14;;;;;;;38.15;21.52;;;1.10;99.90;;;;;;4926141;29;20337;-71
2022/01/12 08:00:03;;;;;;;50.58;25.13;;;1.00;99.90;;;;;;4933270;29;20226;-70
2022/01/12 08:02:50;;;;;;;19.80;11.07;;;1.20;99.90;;;;;;4933791;29;20193;-71
2022/01/12 08:05:36;;;;;;;14.20;8.93;;;1.10;99.90;;;;;;4937359;29;20205;-71
2022/01/12 08:08:21;;;;;;;14.32;9.50;;;1.00;99.90;;;;;;4918611;29;20563;-70
2022/01/12 08:11:07;;;;;;;16.77;11.45;;;0.90;99.90;;;;;;4917647;29;20229;-70
2022/01/12 08:13:54;;;;;;;14.30;9.10;;;1.00;99.90;;;;;;4917936;29;20266;-70
2022/01/12 08:16:40;;;;;;;25.63;14.75;;;1.10;99.90;;;;;;4924014;29;20257;-70
2022/01/12 08:19:26;;;;;;;20.30;11.93;;;1.20;99.90;;;;;;4931301;29;20239;-71
2022/01/12 08:22:12;;;;;;;13.05;8.88;;;1.40;99.90;;;;;;4926634;29;20201;-71
2022/01/12 08:24:58;;;;;;;15.82;10.27;;;1.40;99.90;;;;;;4927775;29;20268;-71
2022/01/12 08:27:43;;;;;;;24.30;16.05;;;1.60;99.90;;;;;;4926157;29;20207;-71
2022/01/12 08:30:32;;;;;;;30.13;19.17;;;1.70;99.90;;;;;;4931491;29;20240;-71
2022/01/12 08:33:17;;;;;;;27.88;16.08;;;1.70;99.90;;;;;;4927354;29;20204;-70
2022/01/12 08:36:03;;;;;;;19.20;13.35;;;1.70;99.90;;;;;;4930495;29;20209;-70
2022/01/12 08:38:49;;;;;;;17.98;12.60;;;1.60;99.90;;;;;;4930920;29;20203;-70
2022/01/12 08:41:35;;;;;;;17.65;12.38;;;1.60;99.90;;;;;;4929474;29;20205;-70
2022/01/12 08:44:20;;;;;;;19.27;11.75;;;1.60;99.90;;;;;;4932600;29;20245;-70
2022/01/12 08:47:08;;;;;;;17.73;11.70;;;1.80;99.90;;;;;;4926188;29;20213;-70
2022/01/12 08:49:54;;;;;;;100.57;36.40;;;2.00;99.90;;;;;;4935658;29;20278;-71
2022/01/12 08:52:44;;;;;;;97.75;35.70;;;1.90;99.90;;;;;;4931158;29;20209;-71
2022/01/12 08:55:29;;;;;;;95.82;31.63;;;1.90;99.90;;;;;;4929627;29;20253;-69
2022/01/12 08:58:15;;;;;;;80.10;32.60;;;2.00;99.90;;;;;;4925554;29;20205;-70
2022/01/12 09:01:03;;;;;;;37.10;17.25;;;2.10;99.90;;;;;;4931943;29;20687;-70
2022/01/12 09:03:50;;;;;;;27.10;16.33;;;2.20;99.90;;;;;;4931098;29;20208;-71
2022/01/12 09:06:36;;;;;;;24.75;14.95;;;2.30;99.90;;;;;;4926679;29;20205;-71
2022/01/12 09:09:22;;;;;;;17.85;11.73;;;2.10;99.90;;;;;;4927897;29;20232;-72
2022/01/12 09:12:09;;;;;;;17.23;11.55;;;2.10;99.90;;;;;;4935091;29;20466;-71
2022/01/12 09:14:55;;;;;;;22.35;12.50;;;2.20;99.90;;;;;;4930561;29;20272;-70
2022/01/12 09:17:41;;;;;;;20.90;12.50;;;2.10;99.90;;;;;;4925810;29;20257;-71
2022/01/12 09:20:28;;;;;;;21.08;12.75;;;2.10;99.90;;;;;;4935626;29;20236;-71
2022/01/12 09:23:14;;;;;;;22.02;13.00;;;2.20;99.90;;;;;;4932511;29;20202;-70
2022/01/12 09:25:59;;;;;;;17.13;11.07;;;2.30;99.90;;;;;;4917948;29;20205;-71
2022/01/12 09:28:45;;;;;;;16.35;10.73;;;2.50;99.90;;;;;;4930699;29;20909;-71
2022/01/12 09:31:31;;;;;;;12.68;10.50;;;2.50;99.90;;;;;;4933672;29;20260;-71
2022/01/12 09:34:17;;;;;;;16.35;11.13;;;2.60;99.90;;;;;;4937019;29;20211;-71
2022/01/12 09:37:05;;;;;;;16.17;11.02;;;2.60;99.90;;;;;;4919601;29;20207;-70
2022/01/12 09:39:51;;;;;;;13.98;9.55;;;2.70;99.90;;;;;;4917304;29;20225;-71
2022/01/12 09:42:37;;;;;;;16.90;10.38;;;2.70;99.90;;;;;;4915830;29;20671;-71
2022/01/12 09:45:25;;;;;;;15.88;10.13;;;2.70;99.90;;;;;;4916323;29;20212;-70
2022/01/12 09:48:11;;;;;;;17.25;12.05;;;2.70;99.90;;;;;;4917943;29;20681;-70
2022/01/12 09:50:59;;;;;;;19.60;9.23;;;2.80;99.90;;;;;;4922885;29;20246;-70
2022/01/12 09:53:46;;;;;;;14.88;10.38;;;2.80;99.90;;;;;;4927344;29;20260;-70
2022/01/12 09:56:32;;;;;;;14.98;10.43;;;2.80;99.90;;;;;;4928733;29;20213;-71
2022/01/12 09:59:18;;;;;;;14.63;10.02;;;2.80;99.90;;;;;;4933360;29;20811;-72
2022/01/12 10:02:04;;;;;;;17.00;10.52;;;3.00;99.90;;;;;;4927340;29;20225;-70
2022/01/12 10:05:01;;;;;;;12.32;9.82;;;3.00;99.90;;;;;;4928388;29;20205;-70
2022/01/12 10:07:46;;;;;;;19.00;11.48;;;3.20;99.90;;;;;;4930627;29;20220;-71
2022/01/12 10:10:33;;;;;;;22.70;12.15;;;3.40;99.90;;;;;;4927645;29;20236;-71
2022/01/12 10:13:23;;;;;;;15.80;9.75;;;3.60;99.90;;;;;;4926328;29;20337;-71
2022/01/12 10:16:14;;;;;;;14.50;9.95;;;3.70;99.90;;;;;;4925795;29;20272;-70
2022/01/12 10:19:01;;;;;;;21.20;10.57;;;3.90;99.90;;;;;;4932803;29;20289;-71
2022/01/12 10:21:51;;;;;;;13.20;9.57;;;4.10;99.90;;;;;;4926513;29;20217;-70
2022/01/12 10:24:38;;;;;;;14.43;9.65;;;4.10;99.90;;;;;;4924446;29;20197;-71
2022/01/12 10:27:25;;;;;;;15.05;9.38;;;4.20;99.90;;;;;;4928492;29;20216;-71
2022/01/12 10:30:20;;;;;;;19.88;8.93;;;4.20;99.90;;;;;;4931516;29;20232;-70
2022/01/12 10:33:08;;;;;;;12.85;9.07;;;4.20;99.90;;;;;;4930275;29;20244;-71
2022/01/12 10:35:59;;;;;;;13.93;9.52;;;4.40;99.90;;;;;;4928048;29;20208;-70
2022/01/12 10:38:45;;;;;;;12.50;8.30;;;4.60;99.90;;;;;;4922542;29;20672;-70
2022/01/12 10:41:30;;;;;;;13.00;8.60;;;5.10;99.90;;;;;;4930461;29;20189;-70
2022/01/12 10:44:22;;;;;;;10.88;8.05;;;5.40;99.90;;;;;;4925407;29;20201;-70
2022/01/12 10:47:11;;;;;;;18.75;7.80;;;5.80;99.90;;;;;;4930373;29;20638;-67
2022/01/12 10:49:59;;;;;;;13.27;7.82;;;6.10;99.90;;;;;;4928103;29;20221;-70
2022/01/12 10:52:50;;;;;;;10.77;7.22;;;6.50;99.90;;;;;;4932941;29;20298;-70
2022/01/12 10:55:36;;;;;;;19.88;7.80;;;6.90;99.90;;;;;;4926248;29;20205;-70
2022/01/12 10:58:22;;;;;;;13.48;7.90;;;7.20;99.90;;;;;;4938850;29;20217;-70
2022/01/12 11:01:10;;;;;;;10.50;6.50;;;7.50;99.90;;;;;;4936069;29;20331;-69
2022/01/12 11:03:56;;;;;;;9.30;7.20;;;7.60;92.90;;;;;;4931760;29;20452;-68
2022/01/12 11:06:42;;;;;;;10.90;7.37;;;7.80;90.80;;;;;;4933293;29;20453;-67
2022/01/12 11:09:28;;;;;;;9.55;6.75;;;7.80;90.80;;;;;;4930144;29;20958;-71
2022/01/12 11:12:14;;;;;;;8.60;6.17;;;7.90;90.50;;;;;;4937600;29;20229;-68
2022/01/12 11:14:59;;;;;;;8.57;7.00;;;7.90;85.20;;;;;;4928705;29;20456;-69
2022/01/12 11:17:48;;;;;;;9.63;6.88;;;7.70;84.30;;;;;;4935718;29;21058;-69
2022/01/12 11:20:34;;;;;;;8.70;6.47;;;7.30;86.70;;;;;;4935109;29;20790;-68
2022/01/12 11:23:21;;;;;;;8.10;6.53;;;7.20;85.00;;;;;;4930974;29;20978;-68
2022/01/12 11:26:15;;;;;;;8.48;6.25;;;7.00;88.40;;;;;;4933184;29;20581;-67
2022/01/12 11:29:04;;;;;;;12.27;6.65;;;7.10;89.30;;;;;;4928473;29;20274;-68
2022/01/12 11:31:50;;;;;;;10.50;6.90;;;7.00;88.80;;;;;;4936813;29;20334;-67
2022/01/12 11:34:37;;;;;;;8.98;6.80;;;6.80;88.60;;;;;;4930401;29;20460;-68
2022/01/12 11:37:22;;;;;;;9.20;6.80;;;6.80;90.70;;;;;;4917826;29;20273;-68
2022/01/12 11:40:09;;;;;;;11.68;7.05;;;6.80;90.20;;;;;;4935817;29;20449;-68
2022/01/12 11:42:55;;;;;;;9.25;6.40;;;6.60;89.10;;;;;;4934376;29;20201;-68
2022/01/12 11:45:40;;;;;;;11.13;6.93;;;6.40;88.30;;;;;;4929641;29;20211;-68
2022/01/12 11:48:30;;;;;;;9.93;6.93;;;6.20;91.70;;;;;;4928737;29;20333;-68
2022/01/12 11:51:20;;;;;;;9.32;6.70;;;6.00;90.80;;;;;;4927918;29;20216;-68
2022/01/12 11:54:11;;;;;;;9.35;6.70;;;5.90;90.60;;;;;;4924225;29;20246;-68
2022/01/12 11:56:58;;;;;;;9.25;6.47;;;5.90;91.10;;;;;;4925473;29;20205;-68
2022/01/12 11:59:51;;;;;;;12.80;7.53;;;6.00;96.10;;;;;;4937775;29;20618;-68
2022/01/12 12:02:39;;;;;;;8.33;6.67;;;6.00;92.70;;;;;;4962406;23;20231;-72
2022/01/12 12:05:29;;;;;;;11.73;7.43;;;6.00;92.80;;;;;;4954534;29;20435;-72
2022/01/12 12:08:25;;;;;;;10.40;6.07;;;6.00;93.90;;;;;;4954165;29;20193;-71
2022/01/12 12:11:11;;;;;;;9.20;6.13;;;6.10;94.50;;;;;;4952647;28;20228;-71
2022/01/12 12:14:01;;;;;;;8.93;5.80;;;6.20;95.20;;;;;;4952771;29;20212;-71
2022/01/12 12:16:47;;;;;;;7.90;6.68;;;6.30;93.00;;;;;;4952819;29;20686;-71
2022/01/12 12:19:37;;;;;;;10.23;7.45;;;6.40;92.50;;;;;;4948311;29;20576;-71
2022/01/12 12:22:25;;;;;;;9.40;6.05;;;6.40;92.30;;;;;;4945984;29;20830;-71
2022/01/12 12:25:15;;;;;;;9.25;6.43;;;6.50;91.90;;;;;;4942193;29;20204;-71
2022/01/12 12:28:05;;;;;;;376.90;256.57;;;6.70;91.20;;;;;;4954107;29;20216;-71
2022/01/12 12:30:51;;;;;;;30.63;22.00;;;7.00;90.10;;;;;;4951793;29;21043;-72
2022/01/12 12:33:37;;;;;;;10.93;8.65;;;7.10;88.70;;;;;;4947205;28;20426;-72
2022/01/12 12:36:25;;;;;;;59.65;37.53;;;7.30;87.90;;;;;;4947876;29;20588;-72
2022/01/12 12:39:13;;;;;;;10.57;7.82;;;7.50;88.50;;;;;;4954276;29;20192;-72
2022/01/12 12:42:01;;;;;;;7.30;5.72;;;7.90;85.70;;;;;;4952416;28;20224;-71
2022/01/12 12:44:55;;;;;;;7.90;5.60;;;8.20;82.20;;;;;;4952208;29;20197;-72
2022/01/12 12:47:43;;;;;;;6.88;5.57;;;8.20;78.00;;;;;;4934853;29;20433;-72
2022/01/12 12:50:31;;;;;;;7.65;5.95;;;8.10;77.20;;;;;;4943087;28;20225;-72
2022/01/12 12:53:17;;;;;;;7.83;5.33;;;8.40;75.40;;;;;;4944110;28;20265;-72
2022/01/12 12:56:04;;;;;;;11.53;8.00;;;8.80;73.70;;;;;;4950556;28;20524;-72
2022/01/12 12:58:53;;;;;;;8.40;5.90;;;9.10;69.80;;;;;;4958232;28;20871;-73
2022/01/12 13:01:38;;;;;;;12.57;8.63;;;8.50;67.20;;;;;;4949090;28;20480;-72
2022/01/12 13:04:24;;;;;;;10.63;7.63;;;8.50;67.50;;;;;;4952519;28;20443;-72
2022/01/12 13:07:19;;;;;;;11.10;8.97;;;8.60;66.30;;;;;;4956190;28;20468;-73
2022/01/12 13:10:07;;;;;;;11.83;9.13;;;9.30;66.80;;;;;;4952348;28;21006;-74
2022/01/12 13:12:55;;;;;;;12.03;7.87;;;10.20;61.50;;;;;;4946778;28;20470;-74
2022/01/12 13:15:45;;;;;;;12.63;8.60;;;11.00;53.50;;;;;;4949185;29;20432;-73
2022/01/12 13:18:34;;;;;;;15.50;10.70;;;11.70;49.10;;;;;;4953692;29;20394;-74
2022/01/12 13:21:19;;;;;;;13.97;8.80;;;12.60;46.10;;;;;;4950545;28;20471;-74
2022/01/12 13:24:07;;;;;;;9.97;7.70;;;13.70;43.30;;;;;;4944254;28;20496;-74
2022/01/12 13:26:56;;;;;;;9.37;7.47;;;13.70;40.90;;;;;;4951587;28;20953;-74
2022/01/12 13:29:48;;;;;;;17.77;13.57;;;13.40;40.60;;;;;;4955904;28;20422;-73
2022/01/12 13:32:37;;;;;;;15.13;10.50;;;12.10;41.50;;;;;;4942171;28;21185;-73
2022/01/12 13:35:28;;;;;;;80.27;33.20;;;10.60;44.20;;;;;;4951113;29;20456;-73
2022/01/12 13:38:13;;;;;;;43.70;28.73;;;9.80;49.50;;;;;;4949899;29;20422;-73
2022/01/12 13:41:08;;;;;;;14.30;10.00;;;10.20;46.70;;;;;;4944705;28;20415;-73
2022/01/12 13:43:58;;;;;;;46.13;23.40;;;10.50;45.80;;;;;;4940198;28;20459;-72
2022/01/12 13:46:52;;;;;;;44.27;23.03;;;10.20;47.50;;;;;;4949859;28;20422;-72
2022/01/12 13:49:39;;;;;;;69.70;30.80;;;9.10;51.20;;;;;;4947419;28;20604;-73
2022/01/12 13:52:24;;;;;;;15.17;8.77;;;8.20;59.50;;;;;;4946882;28;20430;-72
2022/01/12 13:55:13;;;;;;;37.03;18.37;;;7.40;71.00;;;;;;4948537;28;20426;-72
2022/01/12 13:58:05;;;;;;;59.03;24.30;;;6.90;78.40;;;;;;4949538;28;20493;-71
2022/01/12 14:01:00;;;;;;;132.47;46.80;;;6.60;76.90;;;;;;4947747;28;20452;-71
2022/01/12 14:03:56;;;;;;;41.87;18.27;;;6.40;92.00;;;;;;4951840;28;20503;-71
2022/01/12 14:06:46;;;;;;;98.80;34.60;;;6.30;93.20;;;;;;4951007;28;20447;-70
2022/01/12 14:09:35;;;;;;;26.95;12.93;;;6.30;91.40;;;;;;4951375;28;20480;-71
2022/01/12 14:12:24;;;;;;;16.50;10.13;;;6.30;89.90;;;;;;4944791;28;20774;-72
2022/01/12 14:15:12;;;;;;;12.50;7.60;;;6.20;90.10;;;;;;4947691;28;20444;-73
2022/01/12 14:17:59;;;;;;;37.27;19.20;;;6.20;93.10;;;;;;4950790;28;20430;-73
2022/01/12 14:20:46;;;;;;;25.50;14.47;;;6.20;94.90;;;;;;4950039;29;20785;-73
2022/01/12 14:23:39;;;;;;;40.03;18.27;;;5.90;95.30;;;;;;4949106;28;20532;-73
2022/01/12 14:26:27;;;;;;;25.23;12.80;;;5.70;96.40;;;;;;4956200;29;20554;-73
2022/01/12 14:29:12;;;;;;;62.08;28.38;;;5.60;97.80;;;;;;4956190;29;20286;-73
2022/01/12 14:31:58;;;;;;;19.73;12.68;;;5.60;96.30;;;;;;4954531;28;20303;-73
2022/01/12 14:34:43;;;;;;;37.55;18.45;;;5.40;99.00;;;;;;4938844;29;20276;-73
2022/01/12 14:37:29;;;;;;;25.17;15.00;;;5.40;99.90;;;;;;4937223;29;20208;-72
2022/01/12 14:40:19;;;;;;;24.40;14.25;;;5.30;99.90;;;;;;4939622;29;20204;-72
2022/01/12 14:43:06;;;;;;;16.42;10.50;;;5.30;99.90;;;;;;4956658;29;20228;-72
2022/01/12 14:45:53;;;;;;;15.73;10.25;;;5.30;99.90;;;;;;4956580;29;20336;-74
2022/01/12 14:48:38;;;;;;;16.27;10.70;;;5.30;99.90;;;;;;4956211;29;20193;-74
2022/01/12 14:51:26;;;;;;;23.45;14.93;;;5.30;99.90;;;;;;4949818;29;20332;-72
2022/01/12 14:54:12;;;;;;;16.15;11.10;;;5.30;99.90;;;;;;4956173;28;20209;-73
2022/01/12 14:56:58;;;;;;;16.85;9.77;;;5.20;99.90;;;;;;4956860;29;20306;-72
2022/01/12 14:59:44;;;;;;;14.80;9.48;;;5.20;99.90;;;;;;4951140;28;20308;-73
2022/01/12 15:02:30;;;;;;;15.63;9.50;;;5.10;99.90;;;;;;4949050;28;20279;-73
2022/01/12 15:05:15;;;;;;;14.60;10.00;;;5.20;99.90;;;;;;4953277;28;20208;-73
2022/01/12 15:08:01;;;;;;;14.15;10.35;;;5.30;99.90;;;;;;4953270;28;20288;-73
2022/01/12 15:10:48;;;;;;;13.35;9.68;;;5.20;99.90;;;;;;4948072;28;20240;-73
2022/01/12 15:13:53;;;;;;;14.15;10.35;;;5.10;99.90;;;;;;4953069;29;20204;-73
2022/01/12 15:16:39;;;;;;;11.88;9.00;;;4.90;99.90;;;;;;4955555;29;20192;-73
2022/01/12 15:19:24;;;;;;;12.00;8.70;;;4.90;99.90;;;;;;4953989;29;20225;-73
2022/01/12 15:22:10;;;;;;;17.80;8.75;;;4.70;99.90;;;;;;4953635;29;20215;-73
2022/01/12 15:24:56;;;;;;;13.10;9.38;;;4.70;99.90;;;;;;4951557;28;20204;-73
2022/01/12 15:27:42;;;;;;;13.98;9.15;;;4.60;99.90;;;;;;4955644;28;20197;-73
2022/01/12 15:30:29;;;;;;;14.45;8.38;;;4.70;99.90;;;;;;4947456;28;20216;-72
2022/01/12 15:33:15;;;;;;;12.40;8.68;;;4.70;99.90;;;;;;4953977;28;20565;-73
2022/01/12 15:36:01;;;;;;;14.75;9.30;;;4.60;99.90;;;;;;4952719;28;20256;-73
2022/01/12 15:38:46;;;;;;;14.55;9.88;;;4.40;99.90;;;;;;4953468;29;20204;-72